sensor_id;sensor_type;location;lat;lon;timestamp;pressure;altitude;pressure_sealevel;temperature;humidity
14902;BME280;7542;49.078;9.194;2023-05-13T00:00:36;98601.91;;;28.17;32.58
14902;BME280;7542;49.078;9.194;2023-05-13T00:01:38;98607.59;;;28.16;32.68
14902;BME280;7542;49.078;9.194;2023-05-13T00:02:41;98599.50;;;28.16;32.55
14902;BME280;7542;49.078;9.194;2023-05-13T00:03:44;98603.28;;;28.15;32.52
14902;BME280;7542;49.078;9.194;2023-05-13T00:04:46;98603.03;;;28.11;32.65
14902;BME280;7542;49.078;9.194;2023-05-13T00:05:47;98611.94;;;28.12;32.61
14902;BME280;7542;49.078;9.194;2023-05-13T00:06:50;98607.63;;;28.11;32.55
14902;BME280;7542;49.078;9.194;2023-05-13T00:07:52;98606.03;;;28.10;32.44
14902;BME280;7542;49.078;9.194;2023-05-13T00:08:54;98602.53;;;28.09;32.69
14902;BME280;7542;49.078;9.194;2023-05-13T00:09:56;98609.81;;;28.09;32.54
14902;BME280;7542;49.078;9.194;2023-05-13T00:10:58;98604.97;;;28.06;32.28
14902;BME280;7542;49.078;9.194;2023-05-13T00:11:59;98612.78;;;28.07;32.88
14902;BME280;7542;49.078;9.194;2023-05-13T00:13:02;98610.38;;;28.06;32.37
14902;BME280;7542;49.078;9.194;2023-05-13T00:14:04;98606.38;;;28.03;32.44
14902;BME280;7542;49.078;9.194;2023-05-13T00:15:10;98610.38;;;28.06;32.48
14902;BME280;7542;49.078;9.194;2023-05-13T00:16:12;98612.28;;;28.05;32.62
14902;BME280;7542;49.078;9.194;2023-05-13T00:17:14;98605.56;;;28.02;32.44
14902;BME280;7542;49.078;9.194;2023-05-13T00:18:16;98609.06;;;28.03;32.53
14902;BME280;7542;49.078;9.194;2023-05-13T00:19:18;98605.84;;;28.01;32.50
14902;BME280;7542;49.078;9.194;2023-05-13T00:20:20;98606.66;;;28.01;32.61
14902;BME280;7542;49.078;9.194;2023-05-13T00:21:23;98601.25;;;28.01;32.49
14902;BME280;7542;49.078;9.194;2023-05-13T00:22:25;98603.41;;;27.99;32.36
14902;BME280;7542;49.078;9.194;2023-05-13T00:23:27;98599.66;;;28.00;32.53
14902;BME280;7542;49.078;9.194;2023-05-13T00:24:29;98601.25;;;28.01;32.58
14902;BME280;7542;49.078;9.194;2023-05-13T00:25:31;98606.09;;;27.99;32.60
14902;BME280;7542;49.078;9.194;2023-05-13T00:26:33;98603.69;;;27.98;32.82
14902;BME280;7542;49.078;9.194;2023-05-13T00:27:35;98600.72;;;27.99;32.45
14902;BME280;7542;49.078;9.194;2023-05-13T00:28:36;98600.72;;;27.99;32.56
14902;BME280;7542;49.078;9.194;2023-05-13T00:29:38;98602.34;;;28.00;32.56
14902;BME280;7542;49.078;9.194;2023-05-13T00:30:44;98596.13;;;28.00;32.51
14902;BME280;7542;49.078;9.194;2023-05-13T00:31:46;98601.00;;;27.98;32.52
14902;BME280;7542;49.078;9.194;2023-05-13T00:32:48;98604.50;;;27.98;32.65
14902;BME280;7542;49.078;9.194;2023-05-13T00:33:50;98600.19;;;27.97;32.67
14902;BME280;7542;49.078;9.194;2023-05-13T00:34:52;98601.28;;;27.96;32.95
14902;BME280;7542;49.078;9.194;2023-05-13T00:35:54;98598.06;;;27.94;32.72
14902;BME280;7542;49.078;9.194;2023-05-13T00:36:56;98598.59;;;27.96;32.56
14902;BME280;7542;49.078;9.194;2023-05-13T00:37:58;98603.69;;;27.98;32.67
14902;BME280;7542;49.078;9.194;2023-05-13T00:39:00;98602.09;;;27.97;32.89
14902;BME280;7542;49.078;9.194;2023-05-13T00:40:02;98603.97;;;27.96;32.67
14902;BME280;7542;49.078;9.194;2023-05-13T00:41:05;98600.47;;;27.96;32.58
14902;BME280;7542;49.078;9.194;2023-05-13T00:42:07;98598.31;;;27.98;32.62
14902;BME280;7542;49.078;9.194;2023-05-13T00:43:12;98596.69;;;27.97;32.54
14902;BME280;7542;49.078;9.194;2023-05-13T00:44:14;98592.41;;;27.96;32.72
14902;BME280;7542;49.078;9.194;2023-05-13T00:45:17;98598.06;;;27.94;32.59
14902;BME280;7542;49.078;9.194;2023-05-13T00:46:19;98606.69;;;27.96;32.59
14902;BME280;7542;49.078;9.194;2023-05-13T00:47:21;98601.84;;;27.93;32.50
14902;BME280;7542;49.078;9.194;2023-05-13T00:48:23;98596.75;;;27.92;32.58
14902;BME280;7542;49.078;9.194;2023-05-13T00:49:25;98601.84;;;27.93;32.63
14902;BME280;7542;49.078;9.194;2023-05-13T00:50:28;98602.44;;;27.90;32.55
14902;BME280;7542;49.078;9.194;2023-05-13T00:51:30;98603.50;;;27.89;32.69
14902;BME280;7542;49.078;9.194;2023-05-13T00:52:34;98606.19;;;27.89;32.68
14902;BME280;7542;49.078;9.194;2023-05-13T00:53:38;98613.47;;;27.89;32.62
14902;BME280;7542;49.078;9.194;2023-05-13T00:54:41;98608.88;;;27.89;32.44
14902;BME280;7542;49.078;9.194;2023-05-13T00:55:44;98608.63;;;27.91;32.45
14902;BME280;7542;49.078;9.194;2023-05-13T00:56:47;98597.59;;;27.87;32.46
14902;BME280;7542;49.078;9.194;2023-05-13T00:57:49;98608.38;;;27.87;32.58
14902;BME280;7542;49.078;9.194;2023-05-13T00:58:51;98605.66;;;27.87;32.57
14902;BME280;7542;49.078;9.194;2023-05-13T00:59:53;98605.97;;;27.86;32.59
14902;BME280;7542;49.078;9.194;2023-05-13T01:02:40;98605.44;;;27.84;32.61
14902;BME280;7542;49.078;9.194;2023-05-13T01:04:02;98600.06;;;27.84;32.65
14902;BME280;7542;49.078;9.194;2023-05-13T01:05:19;98596.56;;;27.83;32.52
14902;BME280;7542;49.078;9.194;2023-05-13T01:07:05;98603.53;;;27.84;32.58
14902;BME280;7542;49.078;9.194;2023-05-13T01:10:08;98604.13;;;27.81;32.44
14902;BME280;7542;49.078;9.194;2023-05-13T01:11:19;98612.75;;;27.78;32.69
14902;BME280;7542;49.078;9.194;2023-05-13T01:12:43;98601.44;;;27.76;32.76
14902;BME280;7542;49.078;9.194;2023-05-13T01:13:49;98605.22;;;27.75;32.67
14902;BME280;7542;49.078;9.194;2023-05-13T01:15:16;98611.41;;;27.76;32.51
14902;BME280;7542;49.078;9.194;2023-05-13T01:16:43;98610.09;;;27.73;32.77
14902;BME280;7542;49.078;9.194;2023-05-13T01:17:54;98613.38;;;27.70;32.70
14902;BME280;7542;49.078;9.194;2023-05-13T01:20:26;98618.75;;;27.70;32.52
14902;BME280;7542;49.078;9.194;2023-05-13T01:21:34;98614.44;;;27.69;32.47
14902;BME280;7542;49.078;9.194;2023-05-13T01:22:36;98615.00;;;27.66;32.42
14902;BME280;7542;49.078;9.194;2023-05-13T01:23:38;98615.00;;;27.66;32.72
14902;BME280;7542;49.078;9.194;2023-05-13T01:24:41;98617.69;;;27.66;32.76
14902;BME280;7542;49.078;9.194;2023-05-13T01:25:42;98621.19;;;27.66;32.69
14902;BME280;7542;49.078;9.194;2023-05-13T01:26:46;98616.09;;;27.65;32.57
14902;BME280;7542;49.078;9.194;2023-05-13T01:27:49;98616.34;;;27.63;32.47
14902;BME280;7542;49.078;9.194;2023-05-13T01:28:51;98617.13;;;27.64;32.63
14902;BME280;7542;49.078;9.194;2023-05-13T01:29:54;98613.63;;;27.63;32.75
14902;BME280;7542;49.078;9.194;2023-05-13T01:30:57;98612.03;;;27.62;32.86
14902;BME280;7542;49.078;9.194;2023-05-13T01:31:59;98613.63;;;27.63;32.68
14902;BME280;7542;49.078;9.194;2023-05-13T01:33:04;98618.22;;;27.63;32.72
14902;BME280;7542;49.078;9.194;2023-05-13T01:34:07;98617.41;;;27.62;32.60
14902;BME280;7542;49.078;9.194;2023-05-13T01:35:12;98622.28;;;27.60;32.54
14902;BME280;7542;49.078;9.194;2023-05-13T01:36:16;98614.72;;;27.62;32.58
14902;BME280;7542;49.078;9.194;2023-05-13T01:37:19;98623.38;;;27.59;32.55
14902;BME280;7542;49.078;9.194;2023-05-13T01:38:22;98616.09;;;27.60;32.68
14902;BME280;7542;49.078;9.194;2023-05-13T01:39:26;98611.50;;;27.60;32.71
14902;BME280;7542;49.078;9.194;2023-05-13T01:40:30;98608.31;;;27.58;32.52
14902;BME280;7542;49.078;9.194;2023-05-13T01:41:34;98612.09;;;27.57;32.71
14902;BME280;7542;49.078;9.194;2023-05-13T01:42:36;98611.00;;;27.58;32.59
14902;BME280;7542;49.078;9.194;2023-05-13T01:43:38;98618.28;;;27.58;32.49
14902;BME280;7542;49.078;9.194;2023-05-13T01:44:40;98609.09;;;27.59;32.67
14902;BME280;7542;49.078;9.194;2023-05-13T01:45:42;98606.69;;;27.57;32.60
14902;BME280;7542;49.078;9.194;2023-05-13T01:46:44;98609.94;;;27.54;32.68
14902;BME280;7542;49.078;9.194;2023-05-13T01:47:46;98604.53;;;27.54;32.64
14902;BME280;7542;49.078;9.194;2023-05-13T01:48:48;98611.53;;;27.55;32.39
14902;BME280;7542;49.078;9.194;2023-05-13T01:49:50;98608.31;;;27.53;32.68
14902;BME280;7542;49.078;9.194;2023-05-13T01:50:52;98610.22;;;27.53;32.75
14902;BME280;7542;49.078;9.194;2023-05-13T01:51:54;98605.91;;;27.52;32.73
14902;BME280;7542;49.078;9.194;2023-05-13T01:52:56;98604.03;;;27.52;32.76
14902;BME280;7542;49.078;9.194;2023-05-13T01:53:58;98604.81;;;27.53;32.64
14902;BME280;7542;49.078;9.194;2023-05-13T01:55:00;98608.59;;;27.52;32.66
14902;BME280;7542;49.078;9.194;2023-05-13T01:56:02;98608.59;;;27.52;32.57
14902;BME280;7542;49.078;9.194;2023-05-13T01:57:04;98614.50;;;27.54;32.71
14902;BME280;7542;49.078;9.194;2023-05-13T01:58:08;98617.78;;;27.51;32.58
14902;BME280;7542;49.078;9.194;2023-05-13T01:59:10;98614.28;;;27.50;32.53
14902;BME280;7542;49.078;9.194;2023-05-13T02:00:12;98609.69;;;27.51;32.45
14902;BME280;7542;49.078;9.194;2023-05-13T02:01:14;98619.66;;;27.50;32.61
14902;BME280;7542;49.078;9.194;2023-05-13T02:02:16;98616.97;;;27.50;32.54
14902;BME280;7542;49.078;9.194;2023-05-13T02:03:19;98616.69;;;27.52;32.47
14902;BME280;7542;49.078;9.194;2023-05-13T02:04:21;98621.53;;;27.50;32.49
14902;BME280;7542;49.078;9.194;2023-05-13T02:05:23;98611.88;;;27.49;32.62
14902;BME280;7542;49.078;9.194;2023-05-13T02:06:26;98616.16;;;27.50;32.63
14902;BME280;7542;49.078;9.194;2023-05-13T02:07:29;98609.44;;;27.47;32.47
14902;BME280;7542;49.078;9.194;2023-05-13T02:08:30;98615.63;;;27.48;32.62
14902;BME280;7542;49.078;9.194;2023-05-13T02:09:32;98612.41;;;27.45;32.60
14902;BME280;7542;49.078;9.194;2023-05-13T02:10:35;98612.41;;;27.45;32.48
14902;BME280;7542;49.078;9.194;2023-05-13T02:11:37;98611.59;;;27.45;32.56
14902;BME280;7542;49.078;9.194;2023-05-13T02:12:39;98614.56;;;27.43;32.43
14902;BME280;7542;49.078;9.194;2023-05-13T02:13:42;98616.75;;;27.41;32.53
14902;BME280;7542;49.078;9.194;2023-05-13T02:14:44;98611.06;;;27.43;32.85
14902;BME280;7542;49.078;9.194;2023-05-13T02:15:46;98613.75;;;27.43;32.47
14902;BME280;7542;49.078;9.194;2023-05-13T02:16:48;98615.94;;;27.41;32.44
14902;BME280;7542;49.078;9.194;2023-05-13T02:17:50;98614.06;;;27.41;32.60
14902;BME280;7542;49.078;9.194;2023-05-13T02:18:52;98615.13;;;27.40;32.45
14902;BME280;7542;49.078;9.194;2023-05-13T02:19:54;98620.25;;;27.42;32.29
14902;BME280;7542;49.078;9.194;2023-05-13T02:20:56;98614.63;;;27.38;32.54
14902;BME280;7542;49.078;9.194;2023-05-13T02:21:58;98616.22;;;27.39;32.46
14902;BME280;7542;49.078;9.194;2023-05-13T02:23:00;98620.53;;;27.40;32.59
14902;BME280;7542;49.078;9.194;2023-05-13T02:24:02;98618.63;;;27.41;32.44
14902;BME280;7542;49.078;9.194;2023-05-13T02:25:05;98618.91;;;27.39;32.42
14902;BME280;7542;49.078;9.194;2023-05-13T02:26:07;98611.63;;;27.40;32.57
14902;BME280;7542;49.078;9.194;2023-05-13T02:27:09;98618.13;;;27.39;32.43
14902;BME280;7542;49.078;9.194;2023-05-13T02:28:13;98621.09;;;27.37;32.40
14902;BME280;7542;49.078;9.194;2023-05-13T02:29:15;98616.78;;;27.36;32.40
14902;BME280;7542;49.078;9.194;2023-05-13T02:30:17;98615.19;;;27.35;32.72
14902;BME280;7542;49.078;9.194;2023-05-13T02:31:19;98622.16;;;27.36;32.42
14902;BME280;7542;49.078;9.194;2023-05-13T02:32:21;98615.19;;;27.35;32.48
14902;BME280;7542;49.078;9.194;2023-05-13T02:33:23;98617.31;;;27.33;32.47
14902;BME280;7542;49.078;9.194;2023-05-13T02:34:25;98620.00;;;27.33;32.46
14902;BME280;7542;49.078;9.194;2023-05-13T02:35:27;98611.94;;;27.33;32.62
14902;BME280;7542;49.078;9.194;2023-05-13T02:36:32;98615.72;;;27.32;32.28
14902;BME280;7542;49.078;9.194;2023-05-13T02:37:34;98621.09;;;27.32;32.59
14902;BME280;7542;49.078;9.194;2023-05-13T02:38:36;98614.09;;;27.31;32.37
14902;BME280;7542;49.078;9.194;2023-05-13T02:39:38;98618.69;;;27.31;32.41
14902;BME280;7542;49.078;9.194;2023-05-13T02:40:40;98615.19;;;27.30;32.64
14902;BME280;7542;49.078;9.194;2023-05-13T02:41:41;98625.97;;;27.30;32.31
14902;BME280;7542;49.078;9.194;2023-05-13T02:42:45;98614.38;;;27.30;32.66
14902;BME280;7542;49.078;9.194;2023-05-13T02:43:47;98623.56;;;27.29;32.49
14902;BME280;7542;49.078;9.194;2023-05-13T02:44:49;98620.88;;;27.29;32.63
14902;BME280;7542;49.078;9.194;2023-05-13T02:45:52;98614.66;;;27.28;32.56
14902;BME280;7542;49.078;9.194;2023-05-13T02:46:55;98622.75;;;27.28;32.33
14902;BME280;7542;49.078;9.194;2023-05-13T02:47:57;98622.22;;;27.26;32.56
14902;BME280;7542;49.078;9.194;2023-05-13T02:48:59;98621.69;;;27.24;32.35
14902;BME280;7542;49.078;9.194;2023-05-13T02:50:02;98616.28;;;27.24;32.35
14902;BME280;7542;49.078;9.194;2023-05-13T02:51:06;98625.44;;;27.23;32.38
14902;BME280;7542;49.078;9.194;2023-05-13T02:52:10;98621.97;;;27.23;32.43
14902;BME280;7542;49.078;9.194;2023-05-13T02:53:12;98623.84;;;27.22;32.62
14902;BME280;7542;49.078;9.194;2023-05-13T02:54:14;98621.44;;;27.21;32.56
14902;BME280;7542;49.078;9.194;2023-05-13T02:55:16;98623.31;;;27.20;32.36
14902;BME280;7542;49.078;9.194;2023-05-13T02:56:18;98624.41;;;27.19;32.72
14902;BME280;7542;49.078;9.194;2023-05-13T02:57:21;98628.72;;;27.20;32.47
14902;BME280;7542;49.078;9.194;2023-05-13T02:58:23;98621.72;;;27.19;32.19
14902;BME280;7542;49.078;9.194;2023-05-13T02:59:25;98623.03;;;27.22;32.64
14902;BME280;7542;49.078;9.194;2023-05-13T03:00:27;98623.59;;;27.19;32.44
14902;BME280;7542;49.078;9.194;2023-05-13T03:01:29;98625.50;;;27.18;32.56
14902;BME280;7542;49.078;9.194;2023-05-13T03:02:32;98616.63;;;27.18;32.34
14902;BME280;7542;49.078;9.194;2023-05-13T03:03:34;98626.56;;;27.17;32.48
14902;BME280;7542;49.078;9.194;2023-05-13T03:04:36;98622.00;;;27.18;32.40
14902;BME280;7542;49.078;9.194;2023-05-13T03:05:38;98623.88;;;27.17;32.38
14902;BME280;7542;49.078;9.194;2023-05-13T03:06:40;98613.41;;;27.15;32.54
14902;BME280;7542;49.078;9.194;2023-05-13T03:07:42;98620.66;;;27.15;32.49
14902;BME280;7542;49.078;9.194;2023-05-13T03:08:44;98624.16;;;27.15;32.42
14902;BME280;7542;49.078;9.194;2023-05-13T03:09:46;98616.38;;;27.14;32.52
14902;BME280;7542;49.078;9.194;2023-05-13T03:10:50;98624.44;;;27.14;32.10
14902;BME280;7542;49.078;9.194;2023-05-13T03:11:52;98621.19;;;27.12;32.56
14902;BME280;7542;49.078;9.194;2023-05-13T03:12:54;98616.38;;;27.14;32.46
14902;BME280;7542;49.078;9.194;2023-05-13T03:13:56;98621.19;;;27.12;32.25
14902;BME280;7542;49.078;9.194;2023-05-13T03:14:58;98615.81;;;27.12;32.58
14902;BME280;7542;49.078;9.194;2023-05-13T03:16:00;98619.31;;;27.12;32.34
14902;BME280;7542;49.078;9.194;2023-05-13T03:17:03;98622.28;;;27.11;32.44
14902;BME280;7542;49.078;9.194;2023-05-13T03:18:05;98620.41;;;27.11;32.47
14902;BME280;7542;49.078;9.194;2023-05-13T03:19:07;98615.56;;;27.08;32.54
14902;BME280;7542;49.078;9.194;2023-05-13T03:20:10;98619.06;;;27.09;32.45
14902;BME280;7542;49.078;9.194;2023-05-13T03:21:12;98619.88;;;27.09;32.31
14902;BME280;7542;49.078;9.194;2023-05-13T03:22:14;98613.16;;;27.07;32.45
14902;BME280;7542;49.078;9.194;2023-05-13T03:23:16;98616.66;;;27.07;32.50
14902;BME280;7542;49.078;9.194;2023-05-13T03:24:17;98620.97;;;27.08;32.45
14902;BME280;7542;49.078;9.194;2023-05-13T03:25:20;98615.06;;;27.06;32.41
14902;BME280;7542;49.078;9.194;2023-05-13T03:26:22;98612.88;;;27.08;32.23
14902;BME280;7542;49.078;9.194;2023-05-13T03:27:24;98619.06;;;27.09;32.42
14902;BME280;7542;49.078;9.194;2023-05-13T03:28:26;98624.72;;;27.07;32.42
14902;BME280;7542;49.078;9.194;2023-05-13T03:29:28;98627.72;;;27.06;32.45
14902;BME280;7542;49.078;9.194;2023-05-13T03:30:30;98625.81;;;27.06;32.35
14902;BME280;7542;49.078;9.194;2023-05-13T03:31:32;98631.19;;;27.06;32.60
14902;BME280;7542;49.078;9.194;2023-05-13T03:32:34;98621.25;;;27.07;32.53
14902;BME280;7542;49.078;9.194;2023-05-13T03:33:36;98623.13;;;27.06;32.61
14902;BME280;7542;49.078;9.194;2023-05-13T03:34:39;98625.00;;;27.06;32.37
14902;BME280;7542;49.078;9.194;2023-05-13T03:35:41;98626.09;;;27.05;32.47
14902;BME280;7542;49.078;9.194;2023-05-13T03:36:43;98624.22;;;27.05;32.28
14902;BME280;7542;49.078;9.194;2023-05-13T03:37:45;98627.19;;;27.04;32.41
14902;BME280;7542;49.078;9.194;2023-05-13T03:38:46;98626.09;;;27.05;32.55
14902;BME280;7542;49.078;9.194;2023-05-13T03:39:49;98626.38;;;27.03;32.48
14902;BME280;7542;49.078;9.194;2023-05-13T03:40:51;98631.75;;;27.03;32.33
14902;BME280;7542;49.078;9.194;2023-05-13T03:41:53;98629.06;;;27.03;32.56
14902;BME280;7542;49.078;9.194;2023-05-13T03:42:55;98629.56;;;27.00;32.22
14902;BME280;7542;49.078;9.194;2023-05-13T03:43:58;98635.50;;;27.02;32.29
14902;BME280;7542;49.078;9.194;2023-05-13T03:45:00;98633.88;;;27.01;32.40
14902;BME280;7542;49.078;9.194;2023-05-13T03:46:02;98631.44;;;27.00;32.19
14902;BME280;7542;49.078;9.194;2023-05-13T03:47:04;98626.06;;;27.00;32.21
14902;BME280;7542;49.078;9.194;2023-05-13T03:48:06;98626.06;;;27.00;32.47
14902;BME280;7542;49.078;9.194;2023-05-13T03:49:09;98629.84;;;26.99;32.32
14902;BME280;7542;49.078;9.194;2023-05-13T03:50:11;98628.75;;;27.00;32.26
14902;BME280;7542;49.078;9.194;2023-05-13T03:51:13;98628.25;;;26.98;32.38
14902;BME280;7542;49.078;9.194;2023-05-13T03:52:15;98626.63;;;26.97;32.34
14902;BME280;7542;49.078;9.194;2023-05-13T03:53:17;98629.59;;;26.95;32.26
14902;BME280;7542;49.078;9.194;2023-05-13T03:54:19;98633.38;;;26.94;32.36
14902;BME280;7542;49.078;9.194;2023-05-13T03:55:21;98627.19;;;26.94;32.24
14902;BME280;7542;49.078;9.194;2023-05-13T03:56:23;98632.56;;;26.94;32.38
14902;BME280;7542;49.078;9.194;2023-05-13T03:57:25;98634.19;;;26.95;32.20
14902;BME280;7542;49.078;9.194;2023-05-13T03:58:27;98636.06;;;26.94;32.21
14902;BME280;7542;49.078;9.194;2023-05-13T03:59:30;98630.97;;;26.93;32.36
14902;BME280;7542;49.078;9.194;2023-05-13T04:00:31;98639.03;;;26.93;32.22
14902;BME280;7542;49.078;9.194;2023-05-13T04:01:35;98640.38;;;26.90;32.32
14902;BME280;7542;49.078;9.194;2023-05-13T04:02:36;98648.16;;;26.92;32.51
14902;BME280;7542;49.078;9.194;2023-05-13T04:03:39;98648.16;;;26.92;32.37
14902;BME280;7542;49.078;9.194;2023-05-13T04:04:43;98650.03;;;26.91;32.28
14902;BME280;7542;49.078;9.194;2023-05-13T04:05:46;98650.31;;;26.90;32.27
14902;BME280;7542;49.078;9.194;2023-05-13T04:06:48;98651.41;;;26.88;32.28
14902;BME280;7542;49.078;9.194;2023-05-13T04:07:50;98652.22;;;26.89;32.18
14902;BME280;7542;49.078;9.194;2023-05-13T04:08:52;98652.50;;;26.87;32.40
14902;BME280;7542;49.078;9.194;2023-05-13T04:09:54;98654.09;;;26.88;32.18
14902;BME280;7542;49.078;9.194;2023-05-13T04:10:56;98652.50;;;26.87;32.33
14902;BME280;7542;49.078;9.194;2023-05-13T04:11:58;98658.69;;;26.88;32.47
14902;BME280;7542;49.078;9.194;2023-05-13T04:13:00;98652.78;;;26.86;32.60
14902;BME280;7542;49.078;9.194;2023-05-13T04:14:03;98654.38;;;26.87;32.06
14902;BME280;7542;49.078;9.194;2023-05-13T04:15:06;98658.97;;;26.86;32.52
14902;BME280;7542;49.078;9.194;2023-05-13T04:16:08;98651.16;;;26.85;32.30
14902;BME280;7542;49.078;9.194;2023-05-13T04:17:10;98650.63;;;26.83;32.52
14902;BME280;7542;49.078;9.194;2023-05-13T04:18:13;98654.66;;;26.85;32.60
14902;BME280;7542;49.078;9.194;2023-05-13T04:19:15;98657.09;;;26.82;32.42
14902;BME280;7542;49.078;9.194;2023-05-13T04:20:17;98652.53;;;26.82;32.56
14902;BME280;7542;49.078;9.194;2023-05-13T04:21:19;98649.84;;;26.82;32.46
14902;BME280;7542;49.078;9.194;2023-05-13T04:22:21;98657.91;;;26.82;32.19
14902;BME280;7542;49.078;9.194;2023-05-13T04:23:25;98653.31;;;26.83;32.58
14902;BME280;7542;49.078;9.194;2023-05-13T04:24:27;98658.16;;;26.81;32.59
14902;BME280;7542;49.078;9.194;2023-05-13T04:25:28;98649.28;;;26.80;32.60
14902;BME280;7542;49.078;9.194;2023-05-13T04:26:30;98656.03;;;26.83;32.45
14902;BME280;7542;49.078;9.194;2023-05-13T04:27:32;98660.84;;;26.81;32.40
14902;BME280;7542;49.078;9.194;2023-05-13T04:28:34;98656.53;;;26.80;32.42
14902;BME280;7542;49.078;9.194;2023-05-13T04:29:37;98656.53;;;26.80;32.61
14902;BME280;7542;49.078;9.194;2023-05-13T04:30:39;98653.03;;;26.79;32.57
14902;BME280;7542;49.078;9.194;2023-05-13T04:31:41;98658.44;;;26.79;32.39
14902;BME280;7542;49.078;9.194;2023-05-13T04:32:43;98656.81;;;26.78;32.54
14902;BME280;7542;49.078;9.194;2023-05-13T04:33:45;98659.22;;;26.80;32.34
14902;BME280;7542;49.078;9.194;2023-05-13T04:34:48;98657.63;;;26.79;32.51
14902;BME280;7542;49.078;9.194;2023-05-13T04:35:50;98662.19;;;26.78;32.34
14902;BME280;7542;49.078;9.194;2023-05-13T04:36:52;98660.31;;;26.79;32.51
14902;BME280;7542;49.078;9.194;2023-05-13T04:37:54;98657.63;;;26.79;32.35
14902;BME280;7542;49.078;9.194;2023-05-13T04:38:56;98652.53;;;26.77;32.40
14902;BME280;7542;49.078;9.194;2023-05-13T04:39:58;98654.13;;;26.78;32.60
14902;BME280;7542;49.078;9.194;2023-05-13T04:41:00;98660.31;;;26.79;32.30
14902;BME280;7542;49.078;9.194;2023-05-13T04:42:02;98658.44;;;26.79;32.54
14902;BME280;7542;49.078;9.194;2023-05-13T04:43:05;98660.59;;;26.77;32.33
14902;BME280;7542;49.078;9.194;2023-05-13T04:44:06;98666.50;;;26.79;32.49
14902;BME280;7542;49.078;9.194;2023-05-13T04:45:09;98662.19;;;26.78;32.23
14902;BME280;7542;49.078;9.194;2023-05-13T04:46:11;98659.78;;;26.77;32.45
14902;BME280;7542;49.078;9.194;2023-05-13T04:47:13;98657.63;;;26.79;32.30
14902;BME280;7542;49.078;9.194;2023-05-13T04:48:16;98662.19;;;26.78;32.48
14902;BME280;7542;49.078;9.194;2023-05-13T04:49:17;98660.31;;;26.79;32.28
14902;BME280;7542;49.078;9.194;2023-05-13T04:50:20;98662.47;;;26.77;32.32
14902;BME280;7542;49.078;9.194;2023-05-13T04:51:23;98661.41;;;26.78;32.39
14902;BME280;7542;49.078;9.194;2023-05-13T04:52:25;98662.19;;;26.78;32.41
14902;BME280;7542;49.078;9.194;2023-05-13T04:53:27;98667.59;;;26.78;32.46
14902;BME280;7542;49.078;9.194;2023-05-13T04:54:29;98667.59;;;26.78;32.52
14902;BME280;7542;49.078;9.194;2023-05-13T04:55:31;98662.19;;;26.78;32.61
14902;BME280;7542;49.078;9.194;2023-05-13T04:56:33;98663.81;;;26.79;32.37
14902;BME280;7542;49.078;9.194;2023-05-13T04:57:35;98665.41;;;26.80;32.56
14902;BME280;7542;49.078;9.194;2023-05-13T04:58:37;98673.50;;;26.80;32.44
14902;BME280;7542;49.078;9.194;2023-05-13T04:59:39;98663.81;;;26.79;32.38
14902;BME280;7542;49.078;9.194;2023-05-13T05:00:41;98664.88;;;26.78;32.29
14902;BME280;7542;49.078;9.194;2023-05-13T05:01:44;98659.22;;;26.80;32.35
14902;BME280;7542;49.078;9.194;2023-05-13T05:02:46;98669.19;;;26.79;32.35
14902;BME280;7542;49.078;9.194;2023-05-13T05:03:48;98669.75;;;26.81;32.40
14902;BME280;7542;49.078;9.194;2023-05-13T05:04:50;98672.69;;;26.80;32.15
14902;BME280;7542;49.078;9.194;2023-05-13T05:05:52;98668.09;;;26.80;32.33
14902;BME280;7542;49.078;9.194;2023-05-13T05:06:53;98672.69;;;26.80;32.44
14902;BME280;7542;49.078;9.194;2023-05-13T05:07:56;98674.28;;;26.81;32.05
14902;BME280;7542;49.078;9.194;2023-05-13T05:08:58;98672.97;;;26.78;32.19
14902;BME280;7542;49.078;9.194;2023-05-13T05:10:00;98683.19;;;26.81;32.34
14902;BME280;7542;49.078;9.194;2023-05-13T05:11:02;98675.38;;;26.80;32.31
14902;BME280;7542;49.078;9.194;2023-05-13T05:12:05;98676.97;;;26.81;32.11
14902;BME280;7542;49.078;9.194;2023-05-13T05:13:08;98687.75;;;26.81;32.12
14902;BME280;7542;49.078;9.194;2023-05-13T05:14:11;98675.13;;;26.81;32.14
14902;BME280;7542;49.078;9.194;2023-05-13T05:15:13;98682.38;;;26.81;32.56
14902;BME280;7542;49.078;9.194;2023-05-13T05:16:18;98683.19;;;26.81;32.08
14902;BME280;7542;49.078;9.194;2023-05-13T05:17:20;98682.13;;;26.82;32.10
14902;BME280;7542;49.078;9.194;2023-05-13T05:18:23;98682.38;;;26.81;32.03
14902;BME280;7542;49.078;9.194;2023-05-13T05:19:25;98688.59;;;26.81;32.08
14902;BME280;7542;49.078;9.194;2023-05-13T05:20:27;98687.50;;;26.82;32.04
14902;BME280;7542;49.078;9.194;2023-05-13T05:21:29;98687.50;;;26.82;32.03
14902;BME280;7542;49.078;9.194;2023-05-13T05:22:31;98690.19;;;26.82;31.98
14902;BME280;7542;49.078;9.194;2023-05-13T05:23:34;98689.63;;;26.80;32.18
14902;BME280;7542;49.078;9.194;2023-05-13T05:24:36;98697.19;;;26.83;32.03
14902;BME280;7542;49.078;9.194;2023-05-13T05:25:38;98694.50;;;26.83;32.21
14902;BME280;7542;49.078;9.194;2023-05-13T05:26:40;98692.88;;;26.82;32.08
14902;BME280;7542;49.078;9.194;2023-05-13T05:27:43;98690.19;;;26.82;32.16
14902;BME280;7542;49.078;9.194;2023-05-13T05:28:45;98700.94;;;26.82;32.09
14902;BME280;7542;49.078;9.194;2023-05-13T05:29:47;98699.59;;;26.85;32.08
14902;BME280;7542;49.078;9.194;2023-05-13T05:30:49;98702.84;;;26.82;32.20
14902;BME280;7542;49.078;9.194;2023-05-13T05:31:51;98700.69;;;26.84;32.20
14902;BME280;7542;49.078;9.194;2023-05-13T05:32:53;98704.16;;;26.84;32.13
14902;BME280;7542;49.078;9.194;2023-05-13T05:33:56;98704.72;;;26.81;31.85
14902;BME280;7542;49.078;9.194;2023-05-13T05:34:58;98700.69;;;26.84;32.18
14902;BME280;7542;49.078;9.194;2023-05-13T05:36:03;98706.34;;;26.82;31.91
14902;BME280;7542;49.078;9.194;2023-05-13T05:37:05;98700.94;;;26.82;31.83
14902;BME280;7542;49.078;9.194;2023-05-13T05:38:07;98707.41;;;26.81;31.92
14902;BME280;7542;49.078;9.194;2023-05-13T05:39:09;98709.25;;;26.81;32.02
14902;BME280;7542;49.078;9.194;2023-05-13T05:40:12;98711.16;;;26.80;32.03
14902;BME280;7542;49.078;9.194;2023-05-13T05:41:14;98712.22;;;26.79;32.05
14902;BME280;7542;49.078;9.194;2023-05-13T05:42:16;98712.78;;;26.81;32.10